Menu Close Menu
Station Historical Data
Daily Summary for October 16, 2017 Units:  Metric    English   Both
« Previous Day
Next Day »
Daily Weekly Monthly Yearly Custom
  High: Low: Average:
Temperature: 20.8 °C 10.1 °C 15.3 °C
Dew Point: 19.6 °C 7 °C 11.6 °C
Humidity: 93% 58% 80%
Wind Speed: 29km/h 1.6km/h 17.9km/h
Wind Gust: 46.7km/h - -
Wind- - NW
Pressure: 1024.3 hPa 1017.5 hPa -
Precipitation: 4.06 mm    
Historical Graphs
 
 
Tabular Data for October 16, 2017
Time Temperature Dew Point Pressure Wind Wind Speed Wind Gust Humidity Rainfall Rate (Hourly) solar Conditions
00:00 20.1 °C 18.7 °C 1017.8 hPa SSE 3.2 km/h 3.2 km/h 92% 0 mm WeatherDisplay:10.37 W/m2 BKN
00:05 20.1 °C 18.7 °C 1017.5 hPa SSE 3.2 km/h 3.2 km/h 92% 0 mm WeatherDisplay:10.37 W/m2 BKN
00:10 20.1 °C 18.8 °C 1017.5 hPa SSE 3.2 km/h 3.2 km/h 92% 0 mm WeatherDisplay:10.37 W/m2 BKN
00:15 20.1 °C 18.8 °C 1017.5 hPa WSW 1.6 km/h 3.2 km/h 92% 0 mm WeatherDisplay:10.37 W/m2 BKN
00:20 20.1 °C 18.8 °C 1017.5 hPa NNW 1.6 km/h 1.6 km/h 92% 0 mm WeatherDisplay:10.37 W/m2 BKN
00:25 20.2 °C 18.8 °C 1017.5 hPa NNW 1.6 km/h 1.6 km/h 92% 0 mm WeatherDisplay:10.37 W/m2 BKN
00:30 20.1 °C 18.8 °C 1017.5 hPa NNW 1.6 km/h 1.6 km/h 92% 0 mm WeatherDisplay:10.37 W/m2 BKN
00:35 20.1 °C 18.8 °C 1017.5 hPa NNW 1.6 km/h 1.6 km/h 92% 0 mm WeatherDisplay:10.37 W/m2 BKN
00:40 20.2 °C 19.1 °C 1017.8 hPa NNW 1.6 km/h 1.6 km/h 93% 0 mm WeatherDisplay:10.37 W/m2 BKN
00:45 20.4 °C 19.3 °C 1017.8 hPa NNW 1.6 km/h 1.6 km/h 93% 0 mm WeatherDisplay:10.37 W/m2 BKN
00:50 20.6 °C 19.4 °C 1017.8 hPa NNW 1.6 km/h 1.6 km/h 93% 0 mm WeatherDisplay:10.37 W/m2 BKN
00:55 20.7 °C 19.6 °C 1017.8 hPa NNW 1.6 km/h 1.6 km/h 93% 0 mm WeatherDisplay:10.37 W/m2 BKN
01:00 20.8 °C 19.4 °C 1018.2 hPa NNW 1.6 km/h 1.6 km/h 92% 0 mm WeatherDisplay:10.37 W/m2 BKN
01:05 20.7 °C 19.4 °C 1017.8 hPa NNW 1.6 km/h 1.6 km/h 92% 0 mm WeatherDisplay:10.37 W/m2 BKN
01:10 20.7 °C 19.3 °C 1017.8 hPa NNW 1.6 km/h 1.6 km/h 92% 0.25 mm WeatherDisplay:10.37 W/m2 RA
01:15 20.7 °C 19.3 °C 1017.8 hPa WNW 16.1 km/h 16.1 km/h 92% 0.25 mm WeatherDisplay:10.37 W/m2 -RA
01:20 20.6 °C 19.2 °C 1017.8 hPa West 16.1 km/h 16.1 km/h 92% 0.51 mm WeatherDisplay:10.37 W/m2 -RA
01:25 20.5 °C 19.2 °C 1017.8 hPa West 22.5 km/h 22.5 km/h 92% 0 mm WeatherDisplay:10.37 W/m2 -RA
01:30 20.4 °C 19.1 °C 1018.2 hPa West 22.5 km/h 22.5 km/h 92% 0.25 mm WeatherDisplay:10.37 W/m2 -RA
01:35 20.4 °C 19.1 °C 1017.8 hPa West 22.5 km/h 22.5 km/h 92% 0.25 mm WeatherDisplay:10.37 W/m2 -RA
01:45 20.3 °C 19.2 °C 1017.8 hPa West 22.5 km/h 22.5 km/h 93% 0.25 mm WeatherDisplay:10.37 W/m2 -RA
01:55 20.2 °C 19 °C 1017.8 hPa West 22.5 km/h 22.5 km/h 93% 0 mm WeatherDisplay:10.37 W/m2 -RA
02:00 20.2 °C 19 °C 1017.8 hPa West 22.5 km/h 22.5 km/h 93% 0.25 mm WeatherDisplay:10.37 W/m2 -RA
02:05 20.1 °C 18.9 °C 1017.8 hPa West 22.5 km/h 22.5 km/h 93% 0 mm WeatherDisplay:10.37 W/m2 -RA
02:10 19.9 °C 18.8 °C 1017.8 hPa West 22.5 km/h 22.5 km/h 93% 0 mm WeatherDisplay:10.37 W/m2 -RA
02:15 19.7 °C 18.4 °C 1017.8 hPa WNW 12.9 km/h 22.5 km/h 92% 0.25 mm WeatherDisplay:10.37 W/m2 -RA
02:20 19.6 °C 18.3 °C 1018.2 hPa NW 12.9 km/h 12.9 km/h 92% 0 mm WeatherDisplay:10.37 W/m2 -RA
02:25 19.4 °C 18.1 °C 1018.2 hPa WNW 20.9 km/h 20.9 km/h 92% 0 mm WeatherDisplay:10.37 W/m2 -RA
02:30 19.2 °C 17.9 °C 1017.8 hPa WNW 20.9 km/h 20.9 km/h 92% 0 mm WeatherDisplay:10.37 W/m2 -RA
02:35 19.1 °C 17.8 °C 1017.8 hPa WNW 20.9 km/h 20.9 km/h 92% 0 mm WeatherDisplay:10.37 W/m2 -RA
02:40 18.9 °C 17.6 °C 1017.8 hPa WNW 20.9 km/h 20.9 km/h 92% 0 mm WeatherDisplay:10.37 W/m2 -RA
02:45 18.8 °C 17.5 °C 1017.8 hPa WNW 20.9 km/h 20.9 km/h 92% 0.25 mm WeatherDisplay:10.37 W/m2 -RA
02:50 18.7 °C 17.3 °C 1017.8 hPa WNW 20.9 km/h 20.9 km/h 92% 0 mm WeatherDisplay:10.37 W/m2 -RA
02:55 18.6 °C 17.2 °C 1017.8 hPa WNW 20.9 km/h 20.9 km/h 92% 0 mm WeatherDisplay:10.37 W/m2 -RA
03:00 18.4 °C 17.1 °C 1017.8 hPa WNW 20.9 km/h 20.9 km/h 92% 0.25 mm WeatherDisplay:10.37 W/m2 -RA
03:05 18.3 °C 16.9 °C 1017.8 hPa WNW 20.9 km/h 20.9 km/h 92% 0 mm WeatherDisplay:10.37 W/m2 -RA
03:10 18.1 °C 16.8 °C 1017.8 hPa WNW 20.9 km/h 20.9 km/h 92% 0.25 mm WeatherDisplay:10.37 W/m2 -RA
03:15 18 °C 16.7 °C 1017.8 hPa NW 16.1 km/h 20.9 km/h 92% 0 mm WeatherDisplay:10.37 W/m2 OVC
03:20 17.9 °C 16.6 °C 1017.8 hPa NW 16.1 km/h 16.1 km/h 92% 0 mm WeatherDisplay:10.37 W/m2 OVC
03:25 17.8 °C 16.5 °C 1017.8 hPa NW 16.1 km/h 16.1 km/h 92% 0 mm WeatherDisplay:10.37 W/m2 OVC
03:30 17.7 °C 16.4 °C 1017.8 hPa NW 16.1 km/h 16.1 km/h 92% 0 mm WeatherDisplay:10.37 W/m2 OVC
03:35 17.7 °C 16.3 °C 1017.8 hPa NW 16.1 km/h 16.1 km/h 92% 0 mm WeatherDisplay:10.37 W/m2 OVC
03:40 17.5 °C 16.2 °C 1017.5 hPa NW 16.1 km/h 16.1 km/h 92% 0 mm WeatherDisplay:10.37 W/m2 OVC
03:45 17.5 °C 16.3 °C 1017.8 hPa NW 12.9 km/h 16.1 km/h 93% 0 mm WeatherDisplay:10.37 W/m2 OVC
03:50 17.4 °C 16.3 °C 1017.5 hPa NW 12.9 km/h 12.9 km/h 93% 0 mm WeatherDisplay:10.37 W/m2 OVC
03:55 17.3 °C 16.2 °C 1017.5 hPa NW 12.9 km/h 12.9 km/h 93% 0 mm WeatherDisplay:10.37 W/m2 OVC
04:00 17.2 °C 16.1 °C 1017.8 hPa NW 12.9 km/h 12.9 km/h 93% 0 mm WeatherDisplay:10.37 W/m2 OVC
04:05 17.1 °C 15.8 °C 1017.8 hPa NW 12.9 km/h 12.9 km/h 92% 0 mm WeatherDisplay:10.37 W/m2 OVC
04:10 16.9 °C 15.6 °C 1017.8 hPa NW 12.9 km/h 12.9 km/h 92% 0 mm WeatherDisplay:10.37 W/m2 OVC
04:15 16.9 °C 15.6 °C 1017.8 hPa NW 19.3 km/h 19.3 km/h 92% 0 mm WeatherDisplay:10.37 W/m2 -RA
04:20 16.8 °C 15.4 °C 1017.8 hPa NW 19.3 km/h 19.3 km/h 92% 0 mm WeatherDisplay:10.37 W/m2 -RA
04:25 16.7 °C 15.3 °C 1017.8 hPa NW 19.3 km/h 19.3 km/h 92% 0 mm WeatherDisplay:10.37 W/m2 -RA
04:30 16.6 °C 15.5 °C 1017.8 hPa NW 19.3 km/h 19.3 km/h 93% 0.25 mm WeatherDisplay:10.37 W/m2 -RA
04:35 16.6 °C 15.3 °C 1017.8 hPa NW 19.3 km/h 19.3 km/h 92% 0 mm WeatherDisplay:10.37 W/m2 -RA
04:40 16.4 °C 15.2 °C 1017.8 hPa NW 19.3 km/h 19.3 km/h 92% 0 mm WeatherDisplay:10.37 W/m2 -RA
04:45 16.3 °C 15.1 °C 1017.8 hPa NW 19.3 km/h 19.3 km/h 92% 0 mm WeatherDisplay:10.37 W/m2 -RA
04:50 16.3 °C 15 °C 1017.8 hPa NW 19.3 km/h 19.3 km/h 92% 0 mm WeatherDisplay:10.37 W/m2 -RA
04:55 16.2 °C 15.1 °C 1017.8 hPa NW 8 km/h 19.3 km/h 93% 0 mm WeatherDisplay:10.37 W/m2 -RA
05:00 16.2 °C 15.1 °C 1017.5 hPa NW 8 km/h 8 km/h 93% 0 mm WeatherDisplay:10.37 W/m2 -RA
05:05 16.1 °C 15 °C 1017.5 hPa NW 8 km/h 8 km/h 93% 0.25 mm WeatherDisplay:10.37 W/m2 -RA
05:10 16.1 °C 15 °C 1017.5 hPa NW 8 km/h 8 km/h 93% 0 mm WeatherDisplay:10.37 W/m2 -RA
05:15 16 °C 14.8 °C 1017.5 hPa NW 16.1 km/h 37 km/h 93% 0.25 mm WeatherDisplay:10.37 W/m2 -RA
05:20 15.9 °C 14.8 °C 1017.8 hPa NW 16.1 km/h 37 km/h 93% 0 mm WeatherDisplay:10.37 W/m2 -RA
05:25 15.7 °C 14.4 °C 1017.8 hPa NW 16.1 km/h 37 km/h 92% 0 mm WeatherDisplay:10.37 W/m2 -RA
05:30 15.5 °C 14.2 °C 1017.8 hPa NW 16.1 km/h 37 km/h 92% 0 mm WeatherDisplay:10.37 W/m2 -RA
05:35 15.3 °C 14.1 °C 1017.8 hPa NW 16.1 km/h 37 km/h 92% 0 mm WeatherDisplay:10.37 W/m2 -RA
05:40 15.2 °C 13.9 °C 1017.8 hPa NW 16.1 km/h 37 km/h 92% 0 mm WeatherDisplay:10.37 W/m2 -RA
05:45 14.9 °C 13.7 °C 1017.8 hPa NW 16.1 km/h 37 km/h 92% 0 mm WeatherDisplay:10.37 W/m2 -RA
05:50 14.8 °C 13.6 °C 1017.8 hPa NW 16.1 km/h 37 km/h 92% 0 mm WeatherDisplay:10.37 W/m2 -RA
05:55 14.8 °C 13.4 °C 1017.8 hPa NW 14.5 km/h 37 km/h 92% 0 mm WeatherDisplay:10.37 W/m2 OVC
06:00 14.7 °C 13.4 °C 1017.8 hPa NW 14.5 km/h 14.5 km/h 92% 0 mm WeatherDisplay:10.37 W/m2 OVC
06:05 14.6 °C 13.5 °C 1017.8 hPa NW 14.5 km/h 14.5 km/h 93% 0 mm WeatherDisplay:10.37 W/m2 OVC
06:10 14.6 °C 13.5 °C 1017.8 hPa NW 14.5 km/h 14.5 km/h 93% 0 mm WeatherDisplay:10.37 W/m2 OVC
06:15 14.5 °C 13.4 °C 1017.8 hPa NW 12.9 km/h 14.5 km/h 93% 0 mm WeatherDisplay:10.37 W/m2 OVC
06:20 14.4 °C 13.3 °C 1017.8 hPa NW 12.9 km/h 12.9 km/h 93% 0 mm WeatherDisplay:10.37 W/m2 OVC
06:25 14.3 °C 13 °C 1017.8 hPa NW 16.1 km/h 16.1 km/h 92% 0 mm WeatherDisplay:10.37 W/m2 OVC
06:30 14.2 °C 13.1 °C 1018.2 hPa NW 16.1 km/h 16.1 km/h 93% 0 mm WeatherDisplay:10.37 W/m2 OVC
06:35 14.1 °C 12.8 °C 1018.2 hPa NW 16.1 km/h 16.1 km/h 92% 0 mm WeatherDisplay:10.37 W/m2 OVC
06:40 13.9 °C 12.6 °C 1018.2 hPa NW 16.1 km/h 16.1 km/h 92% 0 mm WeatherDisplay:10.37 W/m2 OVC
06:50 13.8 °C 12.5 °C 1017.8 hPa NW 25.7 km/h 40.2 km/h 92% 0 mm WeatherDisplay:10.37 W/m2 OVC
06:55 13.7 °C 12.4 °C 1018.2 hPa NW 27.4 km/h 40.2 km/h 92% 0 mm WeatherDisplay:10.37 W/m2 OVC
07:00 13.6 °C 12.3 °C 1018.2 hPa NW 27.4 km/h 27.4 km/h 92% 0 mm WeatherDisplay:10.37 W/m2 OVC
07:05 13.4 °C 12.2 °C 1018.2 hPa NW 27.4 km/h 27.4 km/h 92% 0 mm WeatherDisplay:10.37 W/m2 OVC
07:10 13.4 °C 12.1 °C 1018.2 hPa NW 27.4 km/h 27.4 km/h 92% 0 mm WeatherDisplay:10.37 W/m2 OVC
07:15 13.3 °C 12 °C 1018.2 hPa NW 29 km/h 29 km/h 92% 0 mm WeatherDisplay:10.37 W/m2 OVC
07:20 13.2 °C 11.9 °C 1018.2 hPa NW 29 km/h 29 km/h 92% 0 mm WeatherDisplay:10.37 W/m2 OVC
07:25 13 °C 11.7 °C 1018.2 hPa NW 29 km/h 29 km/h 92% 0 mm WeatherDisplay:10.37 W/m2 OVC
07:30 12.9 °C 11.7 °C 1018.5 hPa NW 29 km/h 29 km/h 92% 0 mm WeatherDisplay:10.37 W/m2 OVC
07:40 12.7 °C 11.4 °C 1018.8 hPa NW 29 km/h 29 km/h 92% 0 mm WeatherDisplay:10.37 W/m2 OVC
07:45 12.7 °C 11.4 °C 1018.8 hPa NW 29 km/h 29 km/h 92% 0 mm WeatherDisplay:10.37 W/m2 OVC
07:50 12.6 °C 11.3 °C 1018.8 hPa NW 29 km/h 29 km/h 92% 0 mm WeatherDisplay:10.37 W/m2 OVC
07:55 12.4 °C 11.2 °C 1018.8 hPa NW 29 km/h 29 km/h 92% 0 mm WeatherDisplay:10.37 W/m2 OVC
08:00 12.4 °C 11.1 °C 1019.2 hPa NW 29 km/h 29 km/h 92% 0 mm WeatherDisplay:10.37 W/m2 OVC
08:05 12.3 °C 11.1 °C 1019.2 hPa NW 29 km/h 29 km/h 92% 0 mm WeatherDisplay:10.37 W/m2 OVC
08:10 12.3 °C 11 °C 1019.2 hPa NW 29 km/h 29 km/h 92% 0 mm WeatherDisplay:10.37 W/m2 OVC
08:15 12.2 °C 10.9 °C 1019.2 hPa NW 19.3 km/h 40.2 km/h 92% 0 mm WeatherDisplay:10.37 W/m2 OVC
08:20 12.1 °C 10.8 °C 1019.5 hPa NW 19.3 km/h 40.2 km/h 92% 0 mm WeatherDisplay:10.37 W/m2 OVC
08:25 12 °C 10.7 °C 1019.5 hPa NW 19.3 km/h 40.2 km/h 92% 0 mm WeatherDisplay:10.37 W/m2 OVC
08:30 12 °C 10.7 °C 1019.5 hPa NW 19.3 km/h 40.2 km/h 92% 0 mm WeatherDisplay:10.37 W/m2 OVC
08:35 11.8 °C 10.4 °C 1019.5 hPa NW 19.3 km/h 40.2 km/h 91% 0 mm WeatherDisplay:10.37 W/m2 OVC
08:40 11.8 °C 10.6 °C 1019.9 hPa NW 19.3 km/h 40.2 km/h 92% 0 mm WeatherDisplay:10.37 W/m2 OVC
08:45 11.8 °C 10.3 °C 1019.5 hPa NW 19.3 km/h 40.2 km/h 91% 0 mm WeatherDisplay:10.37 W/m2 OVC
08:50 11.7 °C 10.3 °C 1019.9 hPa NW 19.3 km/h 40.2 km/h 91% 0 mm WeatherDisplay:10.37 W/m2 OVC
08:55 11.7 °C 10.3 °C 1019.9 hPa NW 19.3 km/h 40.2 km/h 91% 0 mm WeatherDisplay:10.37 W/m2 OVC
09:00 11.7 °C 10.3 °C 1019.9 hPa NW 19.3 km/h 40.2 km/h 91% 0 mm WeatherDisplay:10.37 W/m2 OVC
09:05 11.8 °C 10.3 °C 1019.9 hPa NW 19.3 km/h 40.2 km/h 91% 0 mm WeatherDisplay:10.37 W/m2 OVC
09:10 11.8 °C 10.3 °C 1019.9 hPa NW 19.3 km/h 40.2 km/h 91% 0 mm WeatherDisplay:10.37 W/m2 OVC
09:15 11.8 °C 10.4 °C 1020.2 hPa NW 12.9 km/h 40.2 km/h 91% 0 mm WeatherDisplay:10.37 W/m2 OVC
09:20 11.8 °C 10.2 °C 1020.2 hPa NW 12.9 km/h 12.9 km/h 90% 0 mm WeatherDisplay:10.37 W/m2 OVC
09:25 11.8 °C 10.2 °C 1020.2 hPa NW 12.9 km/h 12.9 km/h 90% 0 mm WeatherDisplay:10.37 W/m2 OVC
09:30 11.8 °C 10.4 °C 1020.2 hPa NW 12.9 km/h 12.9 km/h 91% 0 mm WeatherDisplay:10.37 W/m2 OVC
09:40 11.8 °C 10 °C 1020.5 hPa NW 12.9 km/h 12.9 km/h 89% 0 mm WeatherDisplay:10.37 W/m2 OVC
09:45 11.7 °C 10.1 °C 1020.2 hPa NW 14.5 km/h 14.5 km/h 90% 0 mm WeatherDisplay:10.37 W/m2 OVC
09:50 11.7 °C 10.1 °C 1020.2 hPa NW 14.5 km/h 14.5 km/h 90% 0 mm WeatherDisplay:10.37 W/m2 OVC
09:55 11.7 °C 9.9 °C 1020.5 hPa NW 14.5 km/h 14.5 km/h 89% 0 mm WeatherDisplay:10.37 W/m2 OVC
10:00 11.7 °C 10.1 °C 1020.5 hPa NW 14.5 km/h 14.5 km/h 90% 0 mm WeatherDisplay:10.37 W/m2 OVC
10:05 11.8 °C 10 °C 1020.5 hPa NW 14.5 km/h 14.5 km/h 89% 0 mm WeatherDisplay:10.37 W/m2 OVC
10:10 11.7 °C 9.9 °C 1020.9 hPa NW 14.5 km/h 14.5 km/h 89% 0 mm WeatherDisplay:10.37 W/m2 OVC
10:15 11.6 °C 9.8 °C 1020.9 hPa NW 19.3 km/h 38.6 km/h 89% 0 mm WeatherDisplay:10.37 W/m2 OVC
10:20 11.7 °C 9.9 °C 1020.9 hPa NW 19.3 km/h 38.6 km/h 89% 0 mm WeatherDisplay:10.37 W/m2 OVC
10:25 11.7 °C 9.7 °C 1020.9 hPa NW 19.3 km/h 38.6 km/h 88% 0 mm WeatherDisplay:10.37 W/m2 OVC
10:30 11.7 °C 9.8 °C 1020.9 hPa NW 19.3 km/h 38.6 km/h 88% 0 mm WeatherDisplay:10.37 W/m2 OVC
10:40 12.1 °C 10.1 °C 1020.9 hPa NW 19.3 km/h 38.6 km/h 88% 0 mm WeatherDisplay:10.37 W/m2 OVC
10:45 12.3 °C 10 °C 1021.2 hPa NW 20.9 km/h 38.6 km/h 86% 0 mm WeatherDisplay:10.37 W/m2 OVC
10:50 12.4 °C 9.9 °C 1020.9 hPa NNW 20.9 km/h 33.8 km/h 85% 0 mm WeatherDisplay:10.37 W/m2 OVC
10:55 12.5 °C 10.2 °C 1020.9 hPa NNW 20.9 km/h 33.8 km/h 86% 0 mm WeatherDisplay:10.37 W/m2 OVC
11:00 12.5 °C 9.9 °C 1020.9 hPa NNW 20.9 km/h 33.8 km/h 84% 0 mm WeatherDisplay:10.37 W/m2 OVC
11:05 12.4 °C 10.2 °C 1020.9 hPa NNW 20.9 km/h 33.8 km/h 86% 0 mm WeatherDisplay:10.37 W/m2 OVC
11:10 12.6 °C 10.1 °C 1021.2 hPa NNW 20.9 km/h 33.8 km/h 85% 0 mm WeatherDisplay:10.37 W/m2 OVC
11:15 12.7 °C 10.1 °C 1021.2 hPa NNW 22.5 km/h 38.6 km/h 84% 0 mm WeatherDisplay:10.37 W/m2 BKN
11:20 12.9 °C 10.3 °C 1021.2 hPa NNW 22.5 km/h 38.6 km/h 84% 0 mm WeatherDisplay:10.37 W/m2 BKN
11:25 13.3 °C 10.6 °C 1021.2 hPa NNW 22.5 km/h 38.6 km/h 84% 0 mm WeatherDisplay:10.37 W/m2 BKN
11:30 13.4 °C 10.1 °C 1021.2 hPa NNW 22.5 km/h 38.6 km/h 80% 0 mm WeatherDisplay:10.37 W/m2 BKN
11:40 13.9 °C 10.3 °C 1021.2 hPa NNW 22.5 km/h 38.6 km/h 79% 0 mm WeatherDisplay:10.37 W/m2 BKN
11:45 14.2 °C 10.4 °C 1021.2 hPa NW 22.5 km/h 38.6 km/h 78% 0 mm WeatherDisplay:10.37 W/m2 BKN
11:50 14.5 °C 10.9 °C 1020.9 hPa WNW 22.5 km/h 22.5 km/h 79% 0 mm WeatherDisplay:10.37 W/m2 BKN
11:55 14.7 °C 10.6 °C 1020.9 hPa WNW 22.5 km/h 22.5 km/h 76% 0 mm WeatherDisplay:10.37 W/m2 BKN
12:00 14.9 °C 10.9 °C 1020.9 hPa WNW 22.5 km/h 22.5 km/h 77% 0 mm WeatherDisplay:10.37 W/m2 BKN
12:05 15.3 °C 11.3 °C 1020.9 hPa WNW 22.5 km/h 22.5 km/h 77% 0 mm WeatherDisplay:10.37 W/m2 BKN
12:10 15.5 °C 10.9 °C 1020.9 hPa WNW 22.5 km/h 22.5 km/h 74% 0 mm WeatherDisplay:10.37 W/m2 BKN
12:15 15.4 °C 10.8 °C 1020.9 hPa WNW 19.3 km/h 40.2 km/h 74% 0 mm WeatherDisplay:10.37 W/m2 BKN
12:20 15.4 °C 10.6 °C 1020.9 hPa WNW 19.3 km/h 40.2 km/h 73% 0 mm WeatherDisplay:10.37 W/m2 BKN
12:25 15.5 °C 10.7 °C 1020.9 hPa WNW 19.3 km/h 40.2 km/h 73% 0 mm WeatherDisplay:10.37 W/m2 BKN
12:30 15.7 °C 10.8 °C 1020.9 hPa WNW 19.3 km/h 40.2 km/h 73% 0 mm WeatherDisplay:10.37 W/m2 BKN
12:35 15.8 °C 10.6 °C 1020.9 hPa WNW 19.3 km/h 40.2 km/h 71% 0 mm WeatherDisplay:10.37 W/m2 BKN
12:40 15.8 °C 10.8 °C 1020.9 hPa WNW 19.3 km/h 40.2 km/h 72% 0 mm WeatherDisplay:10.37 W/m2 BKN
12:45 16 °C 11.1 °C 1020.9 hPa WNW 19.3 km/h 40.2 km/h 73% 0 mm WeatherDisplay:10.37 W/m2 BKN
12:50 16.1 °C 10.8 °C 1020.9 hPa WNW 19.3 km/h 40.2 km/h 71% 0 mm WeatherDisplay:10.37 W/m2 BKN
12:55 16 °C 11 °C 1020.9 hPa WNW 19.3 km/h 40.2 km/h 72% 0 mm WeatherDisplay:10.37 W/m2 BKN
13:00 15.9 °C 10.7 °C 1020.9 hPa WNW 19.3 km/h 40.2 km/h 71% 0 mm WeatherDisplay:10.37 W/m2 BKN
13:05 15.8 °C 10.6 °C 1020.9 hPa WNW 19.3 km/h 40.2 km/h 71% 0 mm WeatherDisplay:10.37 W/m2 BKN
13:10 15.8 °C 10.6 °C 1020.9 hPa WNW 19.3 km/h 40.2 km/h 71% 0 mm WeatherDisplay:10.37 W/m2 BKN
13:15 15.9 °C 10.5 °C 1020.9 hPa NW 25.7 km/h 46.7 km/h 70% 0 mm WeatherDisplay:10.37 W/m2 BKN
13:20 16.1 °C 10.6 °C 1020.9 hPa NW 25.7 km/h 46.7 km/h 70% 0 mm WeatherDisplay:10.37 W/m2 BKN
13:25 16 °C 10.9 °C 1020.9 hPa NW 25.7 km/h 46.7 km/h 72% 0 mm WeatherDisplay:10.37 W/m2 BKN
13:30 15.9 °C 10.2 °C 1020.9 hPa NW 25.7 km/h 46.7 km/h 69% 0 mm WeatherDisplay:10.37 W/m2 BKN
13:35 15.8 °C 10.6 °C 1020.9 hPa NW 25.7 km/h 46.7 km/h 71% 0 mm WeatherDisplay:10.37 W/m2 BKN
13:40 15.9 °C 10.9 °C 1020.5 hPa NW 25.7 km/h 46.7 km/h 72% 0 mm WeatherDisplay:10.37 W/m2 BKN
13:45 16.1 °C 10.6 °C 1020.5 hPa NW 25.7 km/h 46.7 km/h 70% 0 mm WeatherDisplay:10.37 W/m2 BKN
13:50 16.4 °C 10.7 °C 1020.5 hPa NW 25.7 km/h 46.7 km/h 69% 0 mm WeatherDisplay:10.37 W/m2 BKN
13:55 16.9 °C 11 °C 1020.2 hPa NW 25.7 km/h 46.7 km/h 68% 0 mm WeatherDisplay:10.37 W/m2 BKN
14:00 17.3 °C 10.4 °C 1020.2 hPa NW 25.7 km/h 46.7 km/h 64% 0 mm WeatherDisplay:10.37 W/m2 BKN
14:05 17.4 °C 10.8 °C 1020.2 hPa NW 25.7 km/h 46.7 km/h 65% 0 mm WeatherDisplay:10.37 W/m2 BKN
14:10 17.3 °C 10.9 °C 1020.2 hPa NW 25.7 km/h 46.7 km/h 66% 0 mm WeatherDisplay:10.37 W/m2 BKN
14:15 17.4 °C 10.5 °C 1020.2 hPa NW 14.5 km/h 46.7 km/h 64% 0 mm WeatherDisplay:10.37 W/m2 BKN
14:20 17.7 °C 11.2 °C 1019.9 hPa NW 14.5 km/h 14.5 km/h 66% 0 mm WeatherDisplay:10.37 W/m2 BKN
14:25 17.8 °C 10.2 °C 1019.9 hPa NW 14.5 km/h 14.5 km/h 61% 0 mm WeatherDisplay:10.37 W/m2 BKN
14:30 17.7 °C 10.8 °C 1019.9 hPa NW 14.5 km/h 14.5 km/h 64% 0 mm WeatherDisplay:10.37 W/m2 BKN
14:40 17.5 °C 9.6 °C 1019.9 hPa NW 14.5 km/h 14.5 km/h 60% 0 mm WeatherDisplay:10.37 W/m2 BKN
14:45 17.4 °C 9.6 °C 1019.9 hPa NW 14.5 km/h 14.5 km/h 60% 0 mm WeatherDisplay:10.37 W/m2 BKN
14:50 17.3 °C 10 °C 1019.9 hPa NW 14.5 km/h 14.5 km/h 62% 0 mm WeatherDisplay:10.37 W/m2 BKN
14:55 17.5 °C 10.1 °C 1019.5 hPa NW 14.5 km/h 14.5 km/h 62% 0 mm WeatherDisplay:10.37 W/m2 BKN
15:00 17.5 °C 10.1 °C 1019.5 hPa NW 14.5 km/h 14.5 km/h 62% 0 mm WeatherDisplay:10.37 W/m2 BKN
15:05 17.7 °C 10.8 °C 1019.5 hPa NW 14.5 km/h 14.5 km/h 64% 0 mm WeatherDisplay:10.37 W/m2 BKN
15:10 17.8 °C 9.9 °C 1019.5 hPa NW 14.5 km/h 14.5 km/h 60% 0 mm WeatherDisplay:10.37 W/m2 BKN
15:15 17.8 °C 9.7 °C 1019.5 hPa NW 19.3 km/h 46.7 km/h 59% 0 mm WeatherDisplay:10.37 W/m2 SCT
15:20 17.8 °C 9.7 °C 1019.5 hPa NNW 19.3 km/h 46.7 km/h 59% 0 mm WeatherDisplay:10.37 W/m2 SCT
15:25 17.8 °C 9.9 °C 1019.5 hPa NNW 19.3 km/h 46.7 km/h 60% 0 mm WeatherDisplay:10.37 W/m2 SCT
15:30 17.8 °C 9.9 °C 1019.5 hPa NNW 19.3 km/h 46.7 km/h 60% 0 mm WeatherDisplay:10.37 W/m2 SCT
15:35 17.8 °C 10.2 °C 1019.5 hPa NNW 19.3 km/h 46.7 km/h 61% 0 mm WeatherDisplay:10.37 W/m2 SCT
15:45 17.7 °C 9.8 °C 1019.5 hPa NNW 19.3 km/h 46.7 km/h 60% 0 mm WeatherDisplay:10.37 W/m2 SCT
15:50 17.6 °C 9.8 °C 1019.5 hPa NNW 19.3 km/h 46.7 km/h 60% 0 mm WeatherDisplay:10.37 W/m2 SCT
15:55 17.6 °C 9.7 °C 1019.5 hPa NNW 19.3 km/h 46.7 km/h 60% 0 mm WeatherDisplay:10.37 W/m2 SCT
16:00 17.7 °C 9.6 °C 1019.5 hPa NNW 19.3 km/h 46.7 km/h 59% 0 mm WeatherDisplay:10.37 W/m2 SCT
16:05 17.7 °C 9.8 °C 1019.5 hPa NNW 19.3 km/h 46.7 km/h 60% 0 mm WeatherDisplay:10.37 W/m2 SCT
16:10 17.7 °C 9.3 °C 1019.5 hPa NNW 19.3 km/h 46.7 km/h 58% 0 mm WeatherDisplay:10.37 W/m2 SCT
16:15 17.7 °C 9.6 °C 1019.9 hPa NNW 29 km/h 46.7 km/h 59% 0 mm WeatherDisplay:10.37 W/m2 FEW
16:20 17.8 °C 9.6 °C 1019.9 hPa NNW 29 km/h 41.8 km/h 59% 0 mm WeatherDisplay:10.37 W/m2 FEW
16:25 17.7 °C 9.6 °C 1019.5 hPa NNW 29 km/h 41.8 km/h 59% 0 mm WeatherDisplay:10.37 W/m2 FEW
16:30 17.7 °C 9.3 °C 1019.9 hPa NNW 29 km/h 41.8 km/h 58% 0 mm WeatherDisplay:10.37 W/m2 FEW
16:35 17.6 °C 9.7 °C 1019.9 hPa NNW 29 km/h 41.8 km/h 60% 0 mm WeatherDisplay:10.37 W/m2 FEW
16:40 17.6 °C 9.9 °C 1019.9 hPa NNW 29 km/h 41.8 km/h 61% 0 mm WeatherDisplay:10.37 W/m2 FEW
16:50 17.5 °C 9.4 °C 1019.9 hPa NNW 29 km/h 41.8 km/h 59% 0 mm WeatherDisplay:10.37 W/m2 FEW
16:55 17.4 °C 9.3 °C 1019.9 hPa NNW 29 km/h 41.8 km/h 59% 0 mm WeatherDisplay:10.37 W/m2 FEW
17:00 17.3 °C 9.4 °C 1019.5 hPa NNW 29 km/h 41.8 km/h 60% 0 mm WeatherDisplay:10.37 W/m2 FEW
17:05 17.3 °C 9.4 °C 1019.9 hPa NNW 29 km/h 41.8 km/h 60% 0 mm WeatherDisplay:10.37 W/m2 FEW
17:10 17.3 °C 9.7 °C 1019.9 hPa NNW 29 km/h 41.8 km/h 61% 0 mm WeatherDisplay:10.37 W/m2 FEW
17:15 17.3 °C 9.7 °C 1019.9 hPa NW 20.9 km/h 41.8 km/h 61% 0 mm WeatherDisplay:10.37 W/m2 FEW
17:20 17.2 °C 9.8 °C 1019.9 hPa NW 20.9 km/h 37 km/h 62% 0 mm WeatherDisplay:10.37 W/m2 FEW
17:25 17.1 °C 9.3 °C 1019.9 hPa NW 20.9 km/h 37 km/h 60% 0 mm WeatherDisplay:10.37 W/m2 FEW
17:30 17.1 °C 9.4 °C 1019.9 hPa NW 20.9 km/h 37 km/h 61% 0 mm WeatherDisplay:10.37 W/m2 FEW
17:35 17 °C 9.2 °C 1019.9 hPa NW 20.9 km/h 37 km/h 60% 0 mm WeatherDisplay:10.37 W/m2 FEW
17:40 16.9 °C 9.3 °C 1019.9 hPa NW 20.9 km/h 37 km/h 61% 0 mm WeatherDisplay:10.37 W/m2 FEW
17:45 16.8 °C 8.9 °C 1019.9 hPa NW 20.9 km/h 37 km/h 60% 0 mm WeatherDisplay:10.37 W/m2 FEW
17:50 16.7 °C 9.4 °C 1019.9 hPa NW 20.9 km/h 37 km/h 62% 0 mm WeatherDisplay:10.37 W/m2 FEW
17:55 16.7 °C 9.1 °C 1019.9 hPa NW 20.9 km/h 37 km/h 61% 0 mm WeatherDisplay:10.37 W/m2 FEW
18:00 16.6 °C 9.4 °C 1019.9 hPa NW 20.9 km/h 37 km/h 63% 0 mm WeatherDisplay:10.37 W/m2 FEW
18:05 16.3 °C 9.5 °C 1020.2 hPa NW 20.9 km/h 37 km/h 64% 0 mm WeatherDisplay:10.37 W/m2 FEW
18:10 16.2 °C 9.4 °C 1020.2 hPa NW 20.9 km/h 37 km/h 64% 0 mm WeatherDisplay:10.37 W/m2 FEW
18:15 16.1 °C 9.1 °C 1020.2 hPa NW 22.5 km/h 37 km/h 63% 0 mm WeatherDisplay:10.37 W/m2 FEW
18:20 16.1 °C 9 °C 1020.2 hPa NW 22.5 km/h 22.5 km/h 63% 0 mm WeatherDisplay:10.37 W/m2 FEW
18:25 15.9 °C 8.9 °C 1020.2 hPa NW 22.5 km/h 22.5 km/h 63% 0 mm WeatherDisplay:10.37 W/m2 FEW
18:30 15.8 °C 8.6 °C 1020.5 hPa NW 22.5 km/h 22.5 km/h 62% 0 mm WeatherDisplay:10.37 W/m2 FEW
18:40 15.5 °C 9.2 °C 1020.5 hPa NW 22.5 km/h 22.5 km/h 66% 0 mm WeatherDisplay:10.37 W/m2 FEW
18:45 15.3 °C 8.9 °C 1020.5 hPa NW 22.5 km/h 22.5 km/h 66% 0 mm WeatherDisplay:10.37 W/m2 FEW
18:50 15.1 °C 9 °C 1020.5 hPa NW 22.5 km/h 22.5 km/h 67% 0 mm WeatherDisplay:10.37 W/m2 FEW
18:55 14.9 °C 9.1 °C 1020.5 hPa NW 22.5 km/h 22.5 km/h 68% 0 mm WeatherDisplay:10.37 W/m2 FEW
19:00 14.8 °C 8.7 °C 1020.5 hPa NW 22.5 km/h 22.5 km/h 67% 0 mm WeatherDisplay:10.37 W/m2 FEW
19:05 14.7 °C 9.1 °C 1020.5 hPa NW 22.5 km/h 22.5 km/h 69% 0 mm WeatherDisplay:10.37 W/m2 FEW
19:10 14.4 °C 8.8 °C 1020.5 hPa NW 22.5 km/h 22.5 km/h 69% 0 mm WeatherDisplay:10.37 W/m2 FEW
19:15 14.3 °C 8.9 °C 1020.9 hPa NW 14.5 km/h 33.8 km/h 70% 0 mm WeatherDisplay:10.37 W/m2 SCT
19:20 14.1 °C 8.7 °C 1020.9 hPa NW 14.5 km/h 33.8 km/h 70% 0 mm WeatherDisplay:10.37 W/m2 SCT
19:25 14 °C 8.8 °C 1020.9 hPa NW 14.5 km/h 33.8 km/h 71% 0 mm WeatherDisplay:10.37 W/m2 SCT
19:30 13.8 °C 8.9 °C 1020.9 hPa NW 14.5 km/h 33.8 km/h 72% 0 mm WeatherDisplay:10.37 W/m2 SCT
19:40 13.7 °C 8.9 °C 1020.9 hPa NW 14.5 km/h 33.8 km/h 73% 0 mm WeatherDisplay:10.37 W/m2 SCT
19:45 13.6 °C 8.6 °C 1021.2 hPa NW 14.5 km/h 33.8 km/h 72% 0 mm WeatherDisplay:10.37 W/m2 SCT
19:50 13.5 °C 8.3 °C 1021.2 hPa NW 14.5 km/h 33.8 km/h 71% 0 mm WeatherDisplay:10.37 W/m2 SCT
19:55 13.5 °C 8.1 °C 1021.2 hPa NW 14.5 km/h 33.8 km/h 70% 0 mm WeatherDisplay:10.37 W/m2 SCT
20:00 13.5 °C 8.1 °C 1021.2 hPa NW 14.5 km/h 33.8 km/h 70% 0 mm WeatherDisplay:10.37 W/m2 SCT
20:05 13.4 °C 7.8 °C 1021.6 hPa NW 14.5 km/h 33.8 km/h 69% 0 mm WeatherDisplay:10.37 W/m2 SCT
20:10 13.3 °C 7.8 °C 1021.6 hPa NW 14.5 km/h 33.8 km/h 69% 0 mm WeatherDisplay:10.37 W/m2 SCT
20:15 13.3 °C 7.7 °C 1021.6 hPa NNW 16.1 km/h 33.8 km/h 69% 0 mm WeatherDisplay:10.37 W/m2 FEW
20:20 13.3 °C 7.3 °C 1021.6 hPa NNW 16.1 km/h 16.1 km/h 67% 0 mm WeatherDisplay:10.37 W/m2 FEW
20:25 13.2 °C 7.2 °C 1021.9 hPa NNW 16.1 km/h 16.1 km/h 67% 0 mm WeatherDisplay:10.37 W/m2 FEW
20:30 13.2 °C 7.6 °C 1021.9 hPa NNW 16.1 km/h 16.1 km/h 69% 0 mm WeatherDisplay:10.37 W/m2 FEW
20:35 13.1 °C 7.3 °C 1021.9 hPa NNW 16.1 km/h 16.1 km/h 68% 0 mm WeatherDisplay:10.37 W/m2 FEW
20:40 13.1 °C 7.1 °C 1021.9 hPa NNW 16.1 km/h 16.1 km/h 67% 0 mm WeatherDisplay:10.37 W/m2 FEW
20:45 13 °C 7.2 °C 1022.2 hPa NNW 16.1 km/h 16.1 km/h 68% 0 mm WeatherDisplay:10.37 W/m2 FEW
20:50 12.9 °C 7.1 °C 1022.2 hPa NNW 16.1 km/h 16.1 km/h 68% 0 mm WeatherDisplay:10.37 W/m2 FEW
20:55 12.8 °C 7.1 °C 1022.6 hPa NNW 16.1 km/h 16.1 km/h 68% 0 mm WeatherDisplay:10.37 W/m2 FEW
21:00 12.8 °C 7 °C 1022.6 hPa NNW 16.1 km/h 16.1 km/h 68% 0 mm WeatherDisplay:10.37 W/m2 FEW
21:05 12.7 °C 7.3 °C 1022.6 hPa NNW 16.1 km/h 16.1 km/h 70% 0 mm WeatherDisplay:10.37 W/m2 FEW
21:10 12.6 °C 7.1 °C 1022.6 hPa NNW 16.1 km/h 16.1 km/h 69% 0 mm WeatherDisplay:10.37 W/m2 FEW
21:15 12.5 °C 7.4 °C 1022.6 hPa NNW 16.1 km/h 32.2 km/h 71% 0 mm WeatherDisplay:10.37 W/m2 FEW
21:20 12.4 °C 7.3 °C 1022.9 hPa NNW 16.1 km/h 32.2 km/h 71% 0 mm WeatherDisplay:10.37 W/m2 FEW
21:25 12.3 °C 7.2 °C 1022.9 hPa NNW 16.1 km/h 32.2 km/h 71% 0 mm WeatherDisplay:10.37 W/m2 FEW
21:30 12.3 °C 7.2 °C 1022.9 hPa NNW 16.1 km/h 32.2 km/h 71% 0 mm WeatherDisplay:10.37 W/m2 FEW
21:35 12.2 °C 7.3 °C 1022.9 hPa NNW 16.1 km/h 32.2 km/h 72% 0 mm WeatherDisplay:10.37 W/m2 FEW
21:45 12.1 °C 7.2 °C 1023.2 hPa NNW 16.1 km/h 32.2 km/h 72% 0 mm WeatherDisplay:10.37 W/m2 FEW
21:50 12.1 °C 7.2 °C 1023.2 hPa NNW 16.1 km/h 32.2 km/h 72% 0 mm WeatherDisplay:10.37 W/m2 FEW
21:55 12 °C 7.3 °C 1023.2 hPa NNW 16.1 km/h 32.2 km/h 73% 0 mm WeatherDisplay:10.37 W/m2 FEW
22:00 11.9 °C 7.7 °C 1023.6 hPa NNW 16.1 km/h 32.2 km/h 75% 0 mm WeatherDisplay:10.37 W/m2 FEW
22:05 11.8 °C 7.4 °C 1023.6 hPa NNW 16.1 km/h 32.2 km/h 74% 0 mm WeatherDisplay:10.37 W/m2 FEW
22:10 11.8 °C 7.5 °C 1023.6 hPa NNW 16.1 km/h 32.2 km/h 75% 0 mm WeatherDisplay:10.37 W/m2 FEW
22:15 11.7 °C 7.8 °C 1023.6 hPa North 9.7 km/h 32.2 km/h 77% 0 mm WeatherDisplay:10.37 W/m2 FEW
22:20 11.6 °C 7.6 °C 1023.6 hPa North 9.7 km/h 9.7 km/h 77% 0 mm WeatherDisplay:10.37 W/m2 FEW
22:25 11.4 °C 7.7 °C 1023.9 hPa North 9.7 km/h 9.7 km/h 78% 0 mm WeatherDisplay:10.37 W/m2 FEW
22:30 11.3 °C 7.8 °C 1023.9 hPa North 9.7 km/h 9.7 km/h 79% 0 mm WeatherDisplay:10.37 W/m2 FEW
22:40 11.2 °C 8 °C 1023.9 hPa North 9.7 km/h 9.7 km/h 81% 0 mm WeatherDisplay:10.37 W/m2 FEW
22:50 10.9 °C 7.8 °C 1023.9 hPa North 9.7 km/h 9.7 km/h 81% 0 mm WeatherDisplay:10.37 W/m2 FEW
22:55 10.8 °C 7.9 °C 1023.9 hPa North 9.7 km/h 9.7 km/h 82% 0 mm WeatherDisplay:10.37 W/m2 FEW
23:00 10.8 °C 7.8 °C 1023.9 hPa North 9.7 km/h 9.7 km/h 82% 0 mm WeatherDisplay:10.37 W/m2 FEW
23:05 10.7 °C 7.9 °C 1024.3 hPa North 9.7 km/h 9.7 km/h 83% 0 mm WeatherDisplay:10.37 W/m2 FEW
23:10 10.7 °C 7.9 °C 1024.3 hPa North 9.7 km/h 9.7 km/h 83% 0 mm WeatherDisplay:10.37 W/m2 FEW
23:20 10.6 °C 7.8 °C 1024.3 hPa North 9.7 km/h 9.7 km/h 83% 0 mm WeatherDisplay:10.37 W/m2 FEW
23:25 10.4 °C 7.7 °C 1024.3 hPa North 9.7 km/h 9.7 km/h 83% 0 mm WeatherDisplay:10.37 W/m2 FEW
23:30 10.4 °C 7.6 °C 1024.3 hPa North 9.7 km/h 9.7 km/h 83% 0 mm WeatherDisplay:10.37 W/m2 FEW
23:40 10.2 °C 7.7 °C 1024.3 hPa North 9.7 km/h 9.7 km/h 84% 0 mm WeatherDisplay:10.37 W/m2 FEW
23:45 10.2 °C 7.8 °C 1024.3 hPa North 9.7 km/h 9.7 km/h 85% 0 mm WeatherDisplay:10.37 W/m2 FEW
23:50 10.1 °C 7.7 °C 1024.3 hPa North 9.7 km/h 9.7 km/h 85% 0 mm WeatherDisplay:10.37 W/m2 FEW
23:55 10.1 °C 7.7 °C 1024.3 hPa North 9.7 km/h 9.7 km/h 85% 0 mm WeatherDisplay:10.37 W/m2 FEW
Piedmont Bend
Compliments of Weather Underground - 4 mb